• Join FlightAware (Why Join?)
  • Login
  • US Flag 
07:23AM EDT


 

Airport Tracker/Info


-or-


 

Live Flight TrackerFlight Track Log ✈ AFL1730 ✈ 10-Mar-2014 ✈ UUEE / SVO - UHPP / PKC

Flight Track Log - Related Links

Times and Time Zones

All times are in EDT time to prevent confusion due to time zone crossing. See the AFL1730 flight status page for this flight to view local times or setup timezone preferences in your user account.

Time Position Orientation Groundspeed Altitude Reporting Facility
EDT Latitude Longitude Course Direction KTS MPH feet Rate Location/Type
11:01AM 56.2496 37.6235 36° Northeast  Level Estimated
11:02AM 56.3453 37.7506 36° Northeast  Level Estimated
11:03AM 56.4409 37.8783 36° Northeast  Level Estimated
11:04AM 56.5364 38.0067 37° Northeast  Level Estimated
11:05AM 56.6317 38.1357 37° Northeast  Level Estimated
11:06AM 56.7269 38.2654 37° Northeast  Level Estimated
11:07AM 56.8220 38.3957 37° Northeast  Level Estimated
11:08AM 56.9169 38.5267 37° Northeast  Level Estimated
11:09AM 57.0117 38.6583 37° Northeast  Level Estimated
11:10AM 57.1063 38.7907 37° Northeast  Level Estimated
11:11AM 57.2008 38.9237 37° Northeast  Level Estimated
11:12AM 57.2952 39.0574 37° Northeast  Level Estimated
11:13AM 57.3894 39.1917 38° Northeast  Level Estimated
11:14AM 57.4817 39.3242 38° Northeast  Level Estimated
11:15AM 57.5738 39.4573 38° Northeast  Level Estimated
11:16AM 57.6658 39.5911 38° Northeast  Level Estimated
11:17AM 57.7577 39.7256 38° Northeast  Level Estimated
11:18AM 57.8494 39.8608 38° Northeast  Level Estimated
11:19AM 57.9409 39.9967 38° Northeast  Level Estimated
11:20AM 58.0323 40.1332 38° Northeast  Level Estimated
11:21AM 58.1236 40.2705 38° Northeast  Level Estimated
11:22AM 58.2147 40.4084 39° Northeast  Level Estimated
11:23AM 58.3057 40.5471 39° Northeast  Level Estimated
11:24AM 58.3965 40.6865 39° Northeast  Level Estimated
11:25AM 58.4872 40.8266 39° Northeast  Level Estimated
11:26AM 58.5777 40.9674 39° Northeast  Level Estimated
11:27AM 58.6681 41.1090 39° Northeast  Level Estimated
11:28AM 58.7583 41.2513 39° Northeast  Level Estimated
11:29AM 58.8483 41.3943 39° Northeast  Level Estimated
11:30AM 58.9382 41.5381 40° Northeast  Level Estimated
11:31AM 59.0279 41.6826 40° Northeast  Level Estimated
11:32AM 59.1175 41.8279 40° Northeast  Level Estimated
11:33AM 59.2069 41.9739 40° Northeast  Level Estimated
11:34AM 59.2961 42.1207 40° Northeast  Level Estimated
11:35AM 59.3852 42.2683 40° Northeast  Level Estimated
11:36AM 59.4741 42.4167 40° Northeast  Level Estimated
11:37AM 59.5628 42.5658 40° Northeast  Level Estimated
11:38AM 59.6514 42.7157 41° Northeast  Level Estimated
11:39AM 59.7398 42.8665 41° Northeast  Level Estimated
11:40AM 59.8280 43.0180 41° Northeast  Level Estimated
11:41AM 59.9160 43.1703 41° Northeast  Level Estimated
11:42AM 60.0039 43.3234 41° Northeast  Level Estimated
11:43AM 60.0916 43.4774 41° Northeast  Level Estimated
11:44AM 60.1791 43.6321 41° Northeast  Level Estimated
11:45AM 60.2664 43.7877 41° Northeast  Level Estimated
11:46AM 60.3536 43.9442 42° Northeast  Level Estimated
11:47AM 60.4406 44.1014 42° Northeast  Level Estimated
11:48AM 60.5273 44.2595 42° Northeast  Level Estimated
11:49AM 60.6139 44.4185 42° Northeast  Level Estimated
11:50AM 60.7003 44.5783 42° Northeast  Level Estimated
11:51AM 60.7865 44.7390 42° Northeast  Level Estimated
11:52AM 60.8725 44.9005 42° Northeast  Level Estimated
11:53AM 60.9583 45.0629 43° Northeast  Level Estimated
11:54AM 61.0440 45.2262 43° Northeast  Level Estimated
11:55AM 61.1294 45.3904 43° Northeast  Level Estimated
11:56AM 61.2146 45.5554 43° Northeast  Level Estimated
11:57AM 61.2996 45.7214 43° Northeast  Level Estimated
11:58AM 61.3844 45.8882 43° Northeast  Level Estimated
11:59AM 61.4691 46.0560 43° Northeast  Level Estimated
12:00PM 61.5535 46.2246 44° Northeast  Level Estimated
12:01PM 61.6377 46.3942 44° Northeast  Level Estimated
12:02PM 61.7216 46.5648 44° Northeast  Level Estimated
12:03PM 61.8054 46.7362 44° Northeast  Level Estimated
12:04PM 61.8890 46.9086 44° Northeast  Level Estimated
12:05PM 61.9723 47.0819 44° Northeast  Level Estimated
12:06PM 62.0554 47.2562 44° Northeast  Level Estimated
12:07PM 62.1383 47.4314 45° Northeast  Level Estimated
12:08PM 62.2210 47.6076 45° Northeast  Level Estimated
12:09PM 62.3035 47.7848 45° Northeast  Level Estimated
12:10PM 62.3857 47.9629 45° Northeast  Level Estimated
12:11PM 62.4677 48.1420 45° Northeast  Level Estimated
12:12PM 62.5495 48.3221 45° Northeast  Level Estimated
12:13PM 62.6310 48.5032 46° Northeast  Level Estimated
12:14PM 62.7123 48.6852 46° Northeast  Level Estimated
12:15PM 62.7934 48.8683 46° Northeast  Level Estimated
12:16PM 62.8742 49.0524 46° Northeast  Level Estimated
12:17PM 62.9548 49.2375 46° Northeast  Level Estimated
12:18PM 63.0351 49.4236 46° Northeast  Level Estimated
12:19PM 63.1152 49.6108 47° Northeast  Level Estimated
12:20PM 63.1951 49.7990 47° Northeast  Level Estimated
12:21PM 63.2747 49.9882 47° Northeast  Level Estimated
12:22PM 63.3540 50.1785 47° Northeast  Level Estimated
12:23PM 63.4331 50.3698 47° Northeast  Level Estimated
12:24PM 63.5119 50.5622 47° Northeast  Level Estimated
12:25PM 63.5905 50.7556 48° Northeast  Level Estimated
12:26PM 63.6688 50.9502 48° Northeast  Level Estimated
12:27PM 63.7468 51.1457 48° Northeast  Level Estimated
12:28PM 63.8246 51.3424 48° Northeast  Level Estimated
12:29PM 63.9021 51.5402 48° Northeast  Level Estimated
12:30PM 63.9794 51.7390 48° Northeast  Level Estimated
12:31PM 64.0563 51.9390 49° Northeast  Level Estimated
12:32PM 64.1330 52.1400 49° Northeast  Level Estimated
12:33PM 64.2094 52.3422 49° Northeast  Level Estimated
12:34PM 64.2856 52.5455 49° Northeast  Level Estimated
12:35PM 64.3614 52.7499 49° Northeast  Level Estimated
12:36PM 64.4370 52.9554 50° Northeast  Level Estimated
12:37PM 64.5123 53.1621 50° Northeast  Level Estimated
12:38PM 64.5872 53.3699 50° Northeast  Level Estimated
12:39PM 64.6619 53.5789 50° Northeast  Level Estimated
12:40PM 64.7363 53.7890 50° Northeast  Level Estimated
12:41PM 64.8104 54.0003 50° Northeast  Level Estimated
12:42PM 64.8842 54.2127 51° Northeast  Level Estimated
12:43PM 64.9577 54.4263 51° Northeast  Level Estimated
12:44PM 65.0309 54.6410 51° Northeast  Level Estimated
12:45PM 65.1037 54.8570 51° Northeast  Level Estimated
12:46PM 65.1763 55.0741 51° Northeast  Level Estimated
12:47PM 65.2485 55.2925 52° Northeast  Level Estimated
12:48PM 65.3205 55.5120 52° Northeast  Level Estimated
12:49PM 65.3921 55.7327 52° Northeast  Level Estimated
12:50PM 65.4633 55.9546 52° Northeast  Level Estimated
12:51PM 65.5343 56.1777 52° Northeast  Level Estimated
12:52PM 65.6049 56.4021 53° Northeast  Level Estimated
12:53PM 65.6752 56.6277 53° Northeast  Level Estimated
12:54PM 65.7452 56.8545 53° Northeast  Level Estimated
12:55PM 65.8148 57.0825 53° Northeast  Level Estimated
12:56PM 65.8841 57.3117 53° Northeast  Level Estimated
12:57PM 65.9530 57.5422 54° Northeast  Level Estimated
12:58PM 66.0216 57.7740 54° Northeast  Level Estimated
12:59PM 66.0898 58.0069 54° Northeast  Level Estimated
01:00PM 66.1577 58.2412 54° Northeast  Level Estimated
01:01PM 66.2252 58.4767 55° Northeast  Level Estimated
01:02PM 66.2924 58.7134 55° Northeast  Level Estimated
01:03PM 66.3592 58.9514 55° Northeast  Level Estimated
01:04PM 66.4257 59.1907 55° Northeast  Level Estimated
01:05PM 66.4917 59.4313 55° Northeast  Level Estimated
01:06PM 66.5574 59.6731 56° Northeast  Level Estimated
01:07PM 66.6227 59.9162 56° Northeast  Level Estimated
01:08PM 66.6877 60.1606 56° Northeast  Level Estimated
01:09PM 66.7523 60.4063 56° Northeast  Level Estimated
01:10PM 66.8165 60.6533 56° Northeast  Level Estimated
01:11PM 66.8802 60.9015 57° Northeast  Level Estimated
01:12PM 66.9437 61.1511 57° Northeast  Level Estimated
01:13PM 67.0067 61.4019 57° Northeast  Level Estimated
01:14PM 67.0693 61.6541 57° Northeast  Level Estimated
01:15PM 67.1315 61.9075 58° Northeast  Level Estimated
01:16PM 67.1933 62.1623 58° Northeast  Level Estimated
01:17PM 67.2547 62.4183 58° Northeast  Level Estimated
01:18PM 67.3157 62.6757 58° Northeast  Level Estimated
01:19PM 67.3763 62.9344 59° Northeast  Level Estimated
01:20PM 67.4365 63.1944 59° Northeast  Level Estimated
01:21PM 67.4962 63.4557 59° Northeast  Level Estimated
01:22PM 67.5555 63.7183 59° Northeast  Level Estimated
01:23PM 67.6144 63.9822 60° Northeast  Level Estimated
01:24PM 67.6729 64.2475 60° Northeast  Level Estimated
01:25PM 67.7309 64.5140 60° Northeast  Level Estimated
01:26PM 67.7885 64.7819 60° Northeast  Level Estimated
01:27PM 67.8457 65.0511 61° Northeast  Level Estimated
01:28PM 67.9024 65.3216 61° Northeast  Level Estimated
01:29PM 67.9586 65.5935 61° Northeast  Level Estimated
01:30PM 68.0145 65.8666 61° Northeast  Level Estimated
01:31PM 68.0698 66.1411 62° Northeast  Level Estimated
01:32PM 68.1247 66.4169 62° Northeast  Level Estimated
01:33PM 68.1791 66.6940 62° Northeast  Level Estimated
01:34PM 68.2331 66.9724 62° Northeast  Level Estimated
01:35PM 68.2866 67.2521 63° Northeast  Level Estimated
01:36PM 68.3397 67.5331 63° Northeast  Level Estimated
01:37PM 68.3922 67.8155 63° Northeast  Level Estimated
01:38PM 68.4443 68.0991 63° Northeast  Level Estimated
01:39PM 68.4959 68.3840 64° Northeast  Level Estimated
01:40PM 68.5470 68.6703 64° Northeast  Level Estimated
01:41PM 68.5976 68.9578 64° Northeast  Level Estimated
01:42PM 68.6478 69.2466 64° Northeast  Level Estimated
01:43PM 68.6974 69.5368 65° Northeast  Level Estimated
01:44PM 68.7465 69.8282 65° Northeast  Level Estimated
01:45PM 68.7952 70.1208 65° Northeast  Level Estimated
01:46PM 68.8433 70.4148 65° Northeast  Level Estimated
01:47PM 68.8909 70.7100 66° East  Level Estimated
01:48PM 68.9380 71.0065 66° East  Level Estimated
01:49PM 68.9846 71.3043 66° East  Level Estimated
01:50PM 69.0307 71.6033 67° East  Level Estimated
01:51PM 69.0762 71.9036 67° East  Level Estimated
01:52PM 69.1212 72.2051 67° East  Level Estimated
01:53PM 69.1657 72.5079 67° East  Level Estimated
01:54PM 69.2097 72.8118 68° East  Level Estimated
01:55PM 69.2531 73.1170 68° East  Level Estimated
01:56PM 69.2960 73.4235 68° East  Level Estimated
01:57PM 69.3383 73.7311 69° East  Level Estimated
01:58PM 69.3801 74.0399 69° East  Level Estimated
01:59PM 69.4213 74.3499 69° East  Level Estimated
02:00PM 69.4620 74.6611 69° East  Level Estimated
02:01PM 69.5021 74.9735 70° East  Level Estimated
02:02PM 69.5416 75.2870 70° East  Level Estimated
02:03PM 69.5806 75.6017 70° East  Level Estimated
02:04PM 69.6191 75.9176 71° East  Level Estimated
02:05PM 69.6569 76.2346 71° East  Level Estimated
02:06PM 69.6942 76.5527 71° East  Level Estimated
02:07PM 69.7309 76.8719 72° East  Level Estimated
02:08PM 69.7670 77.1922 72° East  Level Estimated
02:09PM 69.8026 77.5136 72° East  Level Estimated
02:10PM 69.8375 77.8360 72° East  Level Estimated
02:11PM 69.8719 78.1596 73° East  Level Estimated
02:12PM 69.9057 78.4842 73° East  Level Estimated
02:13PM 69.9389 78.8098 73° East  Level Estimated
02:14PM 69.9715 79.1364 74° East  Level Estimated
02:15PM 70.0034 79.4641 74° East  Level Estimated
02:16PM 70.0348 79.7928 74° East  Level Estimated
02:17PM 70.0656 80.1224 75° East  Level Estimated
02:18PM 70.0957 80.4530 75° East  Level Estimated
02:19PM 70.1253 80.7846 75° East  Level Estimated
02:20PM 70.1542 81.1171 75° East  Level Estimated
02:21PM 70.1825 81.4505 76° East  Level Estimated
02:22PM 70.2102 81.7849 76° East  Level Estimated
02:23PM 70.2373 82.1201 76° East  Level Estimated
02:24PM 70.2637 82.4562 77° East  Level Estimated
02:25PM 70.2896 82.7931 77° East  Level Estimated
02:26PM 70.3148 83.1309 77° East  Level Estimated
02:27PM 70.3393 83.4695 78° East  Level Estimated
02:28PM 70.3632 83.8089 78° East  Level Estimated
02:29PM 70.3865 84.1491 78° East  Level Estimated
02:30PM 70.4091 84.4901 79° East  Level Estimated
02:31PM 70.4312 84.8318 79° East  Level Estimated
02:32PM 70.4525 85.1742 79° East  Level Estimated
02:33PM 70.4732 85.5174 80° East  Level Estimated
02:34PM 70.4933 85.8612 80° East  Level Estimated
02:35PM 70.5127 86.2057 80° East  Level Estimated
02:36PM 70.5314 86.5508 81° East  Level Estimated
02:37PM 70.5495 86.8966 81° East  Level Estimated
02:38PM 70.5670 87.2430 81° East  Level Estimated
02:39PM 70.5838 87.5900 82° East  Level Estimated
02:40PM 70.5999 87.9375 82° East  Level Estimated
02:41PM 70.6153 88.2856 82° East  Level Estimated
02:42PM 70.6301 88.6342 83° East  Level Estimated
02:43PM 70.6443 88.9833 83° East  Level Estimated
02:44PM 70.6578 89.3329 83° East  Level Estimated
02:45PM 70.6706 89.6830 84° East  Level Estimated
02:46PM 70.6827 90.0334 84° East  Level Estimated
02:47PM 70.6942 90.3843 84° East  Level Estimated
02:48PM 70.7049 90.7356 85° East  Level Estimated
02:49PM 70.7151 91.0873 85° East  Level Estimated
02:50PM 70.7245 91.4393 85° East  Level Estimated
02:51PM 70.7333 91.7916 86° East  Level Estimated
02:52PM 70.7414 92.1442 86° East  Level Estimated
02:53PM 70.7488 92.4971 86° East  Level Estimated
02:54PM 70.7555 92.8502 87° East  Level Estimated
02:55PM 70.7616 93.2036 87° East  Level Estimated
02:56PM 70.7670 93.5571 87° East  Level Estimated
02:57PM 70.7717 93.9109 88° East  Level Estimated
02:58PM 70.7757 94.2648 88° East  Level Estimated
02:59PM 70.7791 94.6188 88° East  Level Estimated
03:00PM 70.7818 94.9729 89° East  Level Estimated
03:01PM 70.7838 95.3271 89° East  Level Estimated
03:02PM 70.7851 95.6814 89° East  Level Estimated
03:03PM 70.7857 96.0357 90° East  Level Estimated
03:04PM 70.7856 96.3900 90° East  Level Estimated
03:05PM 70.7849 96.7443 90° East  Level Estimated
03:06PM 70.7835 97.0986 91° East  Level Estimated
03:07PM 70.7814 97.4528 91° East  Level Estimated
03:08PM 70.7786 97.8069 91° East  Level Estimated
03:09PM 70.7752 98.1609 92° East  Level Estimated
03:10PM 70.7710 98.5148 92° East  Level Estimated
03:11PM 70.7662 98.8685 92° East  Level Estimated
03:12PM 70.7607 99.2220 93° East  Level Estimated
03:13PM 70.7545 99.5754 93° East  Level Estimated
03:14PM 70.7477 99.9285 93° East  Level Estimated
03:15PM 70.7402 100.2813 94° East  Level Estimated
03:16PM 70.7320 100.6339 94° East  Level Estimated
03:17PM 70.7231 100.9861 94° East  Level Estimated
03:18PM 70.7135 101.3381 95° East  Level Estimated
03:19PM 70.7033 101.6897 95° East  Level Estimated
03:20PM 70.6924 102.0409 95° East  Level Estimated
03:21PM 70.6808 102.3917 96° East  Level Estimated
03:22PM 70.6686 102.7421 96° East  Level Estimated
03:23PM 70.6557 103.0921 96° East  Level Estimated
03:24PM 70.6421 103.4416 97° East  Level Estimated
03:25PM 70.6279 103.7906 97° East  Level Estimated
03:26PM 70.6130 104.1392 97° East  Level Estimated
03:27PM 70.5974 104.4872 98° East  Level Estimated
03:28PM 70.5812 104.8346 98° East  Level Estimated
03:29PM 70.5643 105.1815 98° East  Level Estimated
03:30PM 70.5467 105.5278 98° East  Level Estimated
03:31PM 70.5285 105.8735 99° East  Level Estimated
03:32PM 70.5097 106.2185 99° East  Level Estimated
03:33PM 70.4902 106.5629 99° East  Level Estimated
03:34PM 70.4700 106.9067 100° East  Level Estimated
03:35PM 70.4492 107.2497 100° East  Level Estimated
03:36PM 70.4277 107.5920 100° East  Level Estimated
03:37PM 70.4056 107.9336 101° East  Level Estimated
03:38PM 70.3829 108.2745 101° East  Level Estimated
03:39PM 70.3595 108.6145 101° East  Level Estimated
03:40PM 70.3355 108.9538 102° East  Level Estimated
03:41PM 70.3108 109.2923 102° East  Level Estimated
03:42PM 70.2856 109.6300 102° East  Level Estimated
03:43PM 70.2596 109.9668 103° East  Level Estimated
03:44PM 70.2331 110.3027 103° East  Level Estimated
03:45PM 70.2059 110.6378 103° East  Level Estimated
03:46PM 70.1781 110.9720 104° East  Level Estimated
03:47PM 70.1497 111.3053 104° East  Level Estimated
03:48PM 70.1207 111.6376 104° East  Level Estimated
03:49PM 70.0910 111.9690 105° East  Level Estimated
03:50PM 70.0608 112.2995 105° East  Level Estimated
03:51PM 70.0299 112.6290 105° East  Level Estimated
03:52PM 69.9985 112.9575 106° East  Level Estimated
03:53PM 69.9664 113.2850 106° East  Level Estimated
03:54PM 69.9337 113.6115 106° East  Level Estimated
03:55PM 69.9004 113.9370 106° East  Level Estimated
03:56PM 69.8665 114.2614 107° East  Level Estimated
03:57PM 69.8321 114.5848 107° East  Level Estimated
03:58PM 69.7970 114.9071 107° East  Level Estimated
03:59PM 69.7614 115.2283 108° East  Level Estimated
04:00PM 69.7252 115.5484 108° East  Level Estimated
04:01PM 69.6884 115.8675 108° East  Level Estimated
04:02PM 69.6510 116.1854 109° East  Level Estimated
04:03PM 69.6131 116.5022 109° East  Level Estimated
04:04PM 69.5745 116.8178 109° East  Level Estimated
04:05PM 69.5355 117.1323 109° East  Level Estimated
04:06PM 69.4958 117.4457 110° East  Level Estimated
04:07PM 69.4556 117.7579 110° East  Level Estimated
04:08PM 69.4148 118.0689 110° East  Level Estimated
04:09PM 69.3735 118.3788 111° Southeast  Level Estimated
04:10PM 69.3317 118.6874 111° Southeast  Level Estimated
04:11PM 69.2893 118.9948 111° Southeast  Level Estimated
04:12PM 69.2463 119.3011 111° Southeast  Level Estimated
04:13PM 69.2028 119.6061 112° Southeast  Level Estimated
04:14PM 69.1588 119.9099 112° Southeast  Level Estimated
04:15PM 69.1142 120.2124 112° Southeast  Level Estimated
04:16PM 69.0691 120.5137 113° Southeast  Level Estimated
04:17PM 69.0235 120.8138 113° Southeast  Level Estimated
04:18PM 68.9773 121.1126 113° Southeast  Level Estimated
04:19PM 68.9306 121.4102 113° Southeast  Level Estimated
04:20PM 68.8835 121.7065 114° Southeast  Level Estimated
04:21PM 68.8358 122.0015 114° Southeast  Level Estimated
04:22PM 68.7876 122.2953 114° Southeast  Level Estimated
04:23PM 68.7389 122.5878 115° Southeast  Level Estimated
04:24PM 68.6896 122.8790 115° Southeast  Level Estimated
04:25PM 68.6399 123.1689 115° Southeast  Level Estimated
04:26PM 68.5897 123.4575 115° Southeast  Level Estimated
04:27PM 68.5390 123.7449 116° Southeast  Level Estimated
04:28PM 68.4878 124.0309 116° Southeast  Level Estimated
04:29PM 68.4361 124.3156 116° Southeast  Level Estimated
04:30PM 68.3840 124.5991 116° Southeast  Level Estimated
04:31PM 68.3314 124.8812 117° Southeast  Level Estimated
04:32PM 68.2783 125.1620 117° Southeast  Level Estimated
04:33PM 68.2247 125.4415 117° Southeast  Level Estimated
04:34PM 68.1706 125.7197 117° Southeast  Level Estimated
04:35PM 68.1161 125.9966 118° Southeast  Level Estimated
04:36PM 68.0611 126.2722 118° Southeast  Level Estimated
04:37PM 68.0057 126.5464 118° Southeast  Level Estimated
04:38PM 67.9498 126.8194 119° Southeast  Level Estimated
04:39PM 67.8935 127.0910 119° Southeast  Level Estimated
04:40PM 67.8367 127.3613 119° Southeast  Level Estimated
04:41PM 67.7795 127.6303 119° Southeast  Level Estimated
04:42PM 67.7218 127.8980 120° Southeast  Level Estimated
04:43PM 67.6637 128.1644 120° Southeast  Level Estimated
04:44PM 67.6052 128.4294 120° Southeast  Level Estimated
04:45PM 67.5462 128.6931 120° Southeast  Level Estimated
04:46PM 67.4868 128.9555 120° Southeast  Level Estimated
04:47PM 67.4270 129.2166 121° Southeast  Level Estimated
04:48PM 67.3668 129.4764 121° Southeast  Level Estimated
04:49PM 67.3062 129.7349 121° Southeast  Level Estimated
04:50PM 67.2451 129.9920 121° Southeast  Level Estimated
04:51PM 67.1836 130.2479 122° Southeast  Level Estimated
04:52PM 67.1217 130.5025 122° Southeast  Level Estimated
04:53PM 67.0595 130.7557 122° Southeast  Level Estimated
04:54PM 66.9968 131.0076 122° Southeast  Level Estimated
04:55PM 66.9337 131.2583 123° Southeast  Level Estimated
04:56PM 66.8702 131.5076 123° Southeast  Level Estimated
04:57PM 66.8064 131.7557 123° Southeast  Level Estimated
04:58PM 66.7421 132.0025 123° Southeast  Level Estimated
04:59PM 66.6775 132.2479 124° Southeast  Level Estimated
05:00PM 66.6125 132.4921 124° Southeast  Level Estimated
05:01PM 66.5471 132.7350 124° Southeast  Level Estimated
05:02PM 66.4814 132.9767 124° Southeast  Level Estimated
05:03PM 66.4152 133.2170 124° Southeast  Level Estimated
05:04PM 66.3487 133.4561 125° Southeast  Level Estimated
05:05PM 66.2819 133.6939 125° Southeast  Level Estimated
05:06PM 66.2147 133.9305 125° Southeast  Level Estimated
05:07PM 66.1471 134.1658 125° Southeast  Level Estimated
05:08PM 66.0791 134.3998 126° Southeast  Level Estimated
05:09PM 66.0108 134.6326 126° Southeast  Level Estimated
05:10PM 65.9422 134.8641 126° Southeast  Level Estimated
05:11PM 65.8732 135.0944 126° Southeast  Level Estimated
05:12PM 65.8039 135.3235 126° Southeast  Level Estimated
05:13PM 65.7342 135.5513 127° Southeast  Level Estimated
05:14PM 65.6642 135.7779 127° Southeast  Level Estimated
05:15PM 65.5938 136.0033 127° Southeast  Level Estimated
05:16PM 65.5232 136.2275 127° Southeast  Level Estimated
05:17PM 65.4522 136.4504 127° Southeast  Level Estimated
05:18PM 65.3808 136.6721 128° Southeast  Level Estimated
05:19PM 65.3092 136.8927 128° Southeast  Level Estimated
05:20PM 65.2372 137.1120 128° Southeast  Level Estimated
05:21PM 65.1649 137.3301 128° Southeast  Level Estimated
05:21PM 60.3197 149.9282 136° Southeast 475 547 35,000  Level FlightAware ADS-B (UHMM / GDX)
05:22PM 65.0923 137.5471 128° Southeast  Level Estimated
05:22PM 60.2495 150.0658 136° Southeast 474 545 35,000  Level FlightAware ADS-B (UHMM / GDX)
05:22PM 60.1853 150.1911 136° Southeast 474 545 35,000  Level FlightAware ADS-B (UHMM / GDX)
05:23PM 60.1315 150.2959 136° Southeast 473 544 35,000  Level FlightAware ADS-B (UHMM / GDX)
05:24PM 60.0588 150.4364 136° Southeast 472 543 35,000  Level FlightAware ADS-B (UHMM / GDX)
05:24PM 59.9970 150.5549 136° Southeast 473 544 35,000  Level FlightAware ADS-B (UHMM / GDX)
05:25PM 59.9371 150.6688 138° Southeast 473 544 35,000  Level FlightAware ADS-B (UHMM / GDX)
05:26PM 59.8640 150.7863 145° Southeast 475 547 35,000  Level FlightAware ADS-B (UHMM / GDX)
05:26PM 59.7967 150.8818 145° Southeast 474 545 35,000  Level FlightAware ADS-B (UHMM / GDX)
05:27PM 59.7227 150.9861 145° Southeast 473 544 35,000  Level FlightAware ADS-B (UHMM / GDX)
05:28PM 59.6504 151.0878 145° Southeast 475 547 35,000  Level FlightAware ADS-B (UHMM / GDX)
05:28PM 59.5790 151.1866 146° Southeast 475 547 35,000  Level FlightAware ADS-B (UHMM / GDX)
05:29PM 59.5067 151.2840 146° Southeast 475 547 35,000  Level FlightAware ADS-B (UHMM / GDX)
05:30PM 59.4349 151.3806 146° Southeast 474 545 35,000  Level FlightAware ADS-B (UHMM / GDX)
05:30PM 59.3710 151.4664 146° Southeast 475 547 35,000  Level FlightAware ADS-B (UHMM / GDX)
05:31PM 59.2892 151.5757 146° Southeast 477 549 35,000  Level FlightAware ADS-B (UHMM / GDX)
05:32PM 59.1833 151.7161 146° Southeast 475 547 35,000  Level FlightAware ADS-B (UHMM / GDX)
05:35PM 58.9498 152.0299 145° Southeast  Level Estimated
05:36PM 58.8537 152.1577 145° Southeast  Level Estimated
05:37PM 58.7574 152.2847 146° Southeast  Level Estimated
05:38PM 58.6610 152.4111 146° Southeast  Level Estimated
05:39PM 58.5645 152.5367 146° Southeast  Level Estimated
05:40PM 58.4679 152.6617 146° Southeast  Level Estimated
05:41PM 58.3712 152.7860 146° Southeast  Level Estimated
05:42PM 58.2743 152.9095 146° Southeast  Level Estimated
05:43PM 58.1773 153.0325 146° Southeast  Level Estimated
05:44PM 58.0802 153.1547 146° Southeast  Level Estimated
05:45PM 57.9829 153.2763 146° Southeast  Level Estimated
05:46PM 57.8856 153.3972 147° Southeast  Level Estimated
05:47PM 57.7881 153.5175 147° Southeast  Level Estimated
05:48PM 57.6906 153.6371 147° Southeast  Level Estimated
05:49PM 57.5929 153.7561 147° Southeast  Level Estimated
05:50PM 57.4951 153.8745 147° Southeast  Level Estimated
05:51PM 57.3972 153.9922 147° Southeast  Level Estimated
05:52PM 57.2992 154.1092 147° Southeast  Level Estimated
05:53PM 57.2010 154.2257 147° Southeast  Level Estimated
05:54PM 57.1028 154.3415 147° Southeast  Level Estimated
05:55PM 57.0045 154.4568 147° Southeast  Level Estimated
05:56PM 56.9060 154.5714 148° Southeast  Level Estimated
05:57PM 56.8075 154.6854 148° Southeast  Level Estimated
05:58PM 56.7089 154.7988 148° Southeast  Level Estimated
05:59PM 56.6101 154.9117 148° Southeast  Level Estimated
06:00PM 56.5112 155.0239 148° Southeast  Level Estimated
06:01PM 56.4123 155.1355 148° Southeast  Level Estimated
06:02PM 56.3132 155.2466 148° Southeast  Level Estimated
06:03PM 56.2141 155.3571 148° Southeast  Level Estimated
06:04PM 56.1148 155.4671 148° Southeast  Level Estimated
06:05PM 56.0155 155.5764 148° Southeast  Level Estimated
06:06PM 55.9160 155.6852 148° Southeast  Level Estimated
06:07PM 55.8165 155.7935 149° Southeast  Level Estimated
06:08PM 55.7169 155.9012 149° Southeast  Level Estimated
06:09PM 55.6171 156.0083 149° Southeast  Level Estimated
06:10PM 55.5173 156.1149 149° Southeast  Level Estimated
06:11PM 55.4174 156.2210 149° Southeast  Level Estimated
06:12PM 55.3174 156.3265 149° Southeast  Level Estimated
06:13PM 55.2173 156.4315 149° Southeast  Level Estimated
06:14PM 55.1171 156.5359 149° Southeast  Level Estimated
06:15PM 55.0169 156.6399 149° Southeast  Level Estimated
06:16PM 54.9165 156.7433 149° Southeast  Level Estimated
06:17PM 54.8161 156.8462 149° Southeast  Level Estimated
06:18PM 54.7155 156.9486 150° Southeast  Level Estimated
06:19PM 54.6149 157.0505 150° Southeast  Level Estimated
06:20PM 54.5142 157.1519 150° Southeast  Level Estimated
06:21PM 54.4134 157.2528 150° Southeast  Level Estimated
06:22PM 54.3125 157.3532 150° Southeast  Level Estimated
06:23PM 54.2116 157.4531 150° Southeast  Level Estimated
06:24PM 54.1105 157.5525 150° Southeast  Level Estimated
06:25PM 54.0094 157.6515 150° Southeast  Level Estimated
06:26PM 53.9082 157.7499 150° Southeast  Level Estimated
06:27PM 53.8069 157.8479 150° Southeast  Level Estimated
06:28PM 53.7056 157.9454 150° Southeast  Level Estimated
06:29PM 53.6041 158.0424 150° Southeast  Level Estimated
06:30PM 53.5026 158.1390 150° Southeast  Level Estimated
06:31PM 53.4010 158.2351 151° Southeast  Level Estimated
06:32PM 53.2994 158.3308 151° Southeast  Level Estimated
06:33PM 53.1976 158.4260 151° Southeast  Level Estimated
06:34PM 53.1679 158.4537 151° Southeast  Level Estimated
06:35PM 53.1679 158.4537 North  Level Estimated
06:36PM 53.1679 158.4537 North  Level Estimated
06:37PM 53.1679 158.4537 North  Level Estimated
06:38PM 53.1679 158.4537 North  Level Estimated
06:39PM 53.1679 158.4537 North  Level Estimated
06:40PM 53.1679 158.4537 North  Level Estimated
06:41PM 53.1679 158.4537 North  Level Estimated
06:42PM 53.1679 158.4537 North  Level Estimated
06:43PM 53.1679 158.4537 North  Level Estimated
06:44PM 53.1679 158.4537 North  Level Estimated
06:45PM 53.1679 158.4537 North  Level Estimated
06:46PM 53.1679 158.4537 North  Level Estimated
06:47PM 53.1679 158.4537 North  Level Estimated
06:48PM 53.1679 158.4537 North  Level Estimated
06:49PM 53.1679 158.4537 North  Level Estimated
06:50PM 53.1679 158.4537 North  Level Estimated
06:51PM 53.1679 158.4537 North  Level Estimated
06:52PM 53.1679 158.4537 North  Level Estimated
06:53PM 53.1679 158.4537 North  Level Estimated
06:54PM 53.1679 158.4537 North  Level Estimated
06:55PM 53.1679 158.4537 North  Level Estimated
06:56PM 53.1679 158.4537 North  Level Estimated